Time;durP1;ratioP1;P1;durP2;ratioP2;P2;SDS_P1;SDS_P2;PMS_P1;PMS_P2;Temp;Humidity;BMP_temperature;BMP_pressure;BME280_temperature;BME280_humidity;BME280_pressure;Samples;Min_cycle;Max_cycle;Signal;HPM_P1;HPM_P2
2023/03/16 00:00:15;;;;;;;6.13;1.70;;;4.00;99.90;;;;;;5050361;28;20119;-86
2023/03/16 00:02:41;;;;;;;7.07;1.85;;;4.00;99.90;;;;;;5045548;28;20187;-85
2023/03/16 00:05:09;;;;;;;7.30;2.03;;;4.00;99.90;;;;;;5047878;28;20078;-85
2023/03/16 00:07:35;;;;;;;7.32;1.60;;;4.00;99.90;;;;;;5045763;28;20068;-85
2023/03/16 00:10:02;;;;;;;3.97;1.70;;;4.00;99.90;;;;;;5049063;28;20787;-85
2023/03/16 00:12:28;;;;;;;4.78;1.67;;;4.10;99.90;;;;;;5047928;28;20045;-86
2023/03/16 00:14:54;;;;;;;6.30;1.80;;;4.10;99.90;;;;;;5047767;28;20447;-85
2023/03/16 00:17:20;;;;;;;6.57;1.85;;;4.10;99.90;;;;;;5048913;28;20522;-85
2023/03/16 00:19:54;;;;;;;4.88;1.77;;;4.10;99.90;;;;;;5044561;28;20430;-85
2023/03/16 00:22:28;;;;;;;4.35;1.75;;;4.10;99.90;;;;;;5045187;28;20043;-85
2023/03/16 00:24:54;;;;;;;7.30;2.03;;;4.10;99.90;;;;;;5036215;28;20041;-84
2023/03/16 00:27:24;;;;;;;5.50;1.92;;;4.10;99.90;;;;;;5042800;28;20322;-85
2023/03/16 00:29:55;;;;;;;4.22;1.65;;;4.10;99.90;;;;;;5046425;28;20041;-85
2023/03/16 00:32:22;;;;;;;6.63;1.88;;;4.10;99.90;;;;;;5044041;28;20047;-85
2023/03/16 00:34:47;;;;;;;6.90;1.92;;;4.10;99.90;;;;;;5043718;28;20046;-85
2023/03/16 00:37:16;;;;;;;5.00;2.03;;;4.10;99.90;;;;;;5034257;28;20025;-85
2023/03/16 00:39:42;;;;;;;7.40;2.10;;;4.00;99.90;;;;;;5044528;28;20111;-85
2023/03/16 00:42:09;;;;;;;6.07;1.85;;;4.10;99.90;;;;;;5035236;28;20078;-85
2023/03/16 00:44:36;;;;;;;6.10;2.70;;;4.00;99.90;;;;;;5036122;28;20036;-85
2023/03/16 00:47:03;;;;;;;7.05;2.67;;;4.00;99.90;;;;;;5033064;28;20043;-85
2023/03/16 00:49:33;;;;;;;8.57;2.15;;;4.10;99.90;;;;;;5035280;28;20052;-84
2023/03/16 00:52:06;;;;;;;7.22;2.72;;;4.10;99.90;;;;;;5045506;28;20045;-85
2023/03/16 00:54:32;;;;;;;4.28;1.80;;;4.10;99.90;;;;;;5035038;28;20072;-85
2023/03/16 00:57:01;;;;;;;5.03;2.17;;;4.10;99.90;;;;;;5037039;28;20115;-85
2023/03/16 00:59:30;;;;;;;7.78;2.00;;;4.10;99.90;;;;;;5040958;28;20045;-85
2023/03/16 01:01:58;;;;;;;8.45;2.10;;;4.10;99.90;;;;;;5030404;28;20046;-84
2023/03/16 01:04:24;;;;;;;7.68;2.20;;;5.10;99.90;;;;;;5041276;28;20045;-85
2023/03/16 01:06:50;;;;;;;7.82;2.85;;;4.10;99.90;;;;;;5037295;28;20043;-85
2023/03/16 01:09:16;;;;;;;4.97;2.28;;;4.10;99.90;;;;;;5024647;28;20116;-85
2023/03/16 01:11:42;;;;;;;6.43;2.53;;;4.10;99.90;;;;;;5035880;28;20046;-85
2023/03/16 01:14:09;;;;;;;10.43;3.58;;;4.10;99.90;;;;;;5038023;28;20037;-85
2023/03/16 01:16:35;;;;;;;5.53;2.35;;;4.10;99.90;;;;;;5023236;28;20116;-85
2023/03/16 01:19:00;;;;;;;11.30;2.78;;;4.10;99.90;;;;;;5032903;28;20042;-85
2023/03/16 01:21:26;;;;;;;9.00;2.75;;;4.10;99.90;;;;;;5034008;28;20037;-85
2023/03/16 01:23:52;;;;;;;14.25;2.45;;;4.10;99.90;;;;;;5034833;28;20495;-85
2023/03/16 01:26:19;;;;;;;6.90;2.67;;;4.10;99.90;;;;;;5043260;28;20111;-85
2023/03/16 01:28:46;;;;;;;10.98;3.10;;;4.10;99.90;;;;;;5037270;28;20448;-85
2023/03/16 01:31:13;;;;;;;7.20;2.78;;;4.10;99.90;;;;;;5029281;28;20042;-85
2023/03/16 01:33:40;;;;;;;8.57;2.97;;;4.10;99.90;;;;;;5039655;28;20046;-85
2023/03/16 01:36:12;;;;;;;6.97;2.63;;;4.10;99.90;;;;;;5037051;28;20481;-85
2023/03/16 01:38:38;;;;;;;6.63;2.85;;;4.10;99.90;;;;;;5035805;28;20057;-84
2023/03/16 01:41:04;;;;;;;6.78;3.33;;;4.10;99.90;;;;;;5034114;28;20040;-86
2023/03/16 01:43:36;;;;;;;8.38;3.17;;;4.10;99.90;;;;;;5033642;28;20041;-84
2023/03/16 01:46:04;;;;;;;6.03;2.97;;;4.10;99.90;;;;;;5032090;28;20175;-84
2023/03/16 01:48:56;;;;;;;6.82;2.75;;;4.10;99.90;;;;;;5032432;28;20037;-85
2023/03/16 01:51:51;;;;;;;6.20;3.22;;;4.10;99.90;;;;;;5041491;28;20060;-85
2023/03/16 01:54:25;;;;;;;7.63;3.10;;;4.10;99.90;;;;;;5031553;28;20091;-84
2023/03/16 01:57:04;;;;;;;6.07;3.28;;;4.10;99.90;;;;;;5033944;28;20120;-85
2023/03/16 01:59:54;;;;;;;8.88;3.30;;;4.10;99.90;;;;;;5035016;28;20037;-84
2023/03/16 02:02:24;;;;;;;8.85;3.47;;;4.10;99.90;;;;;;5031327;28;20049;-85
2023/03/16 02:05:05;;;;;;;7.07;3.30;;;4.30;99.90;;;;;;5040133;28;20090;-85
2023/03/16 02:07:36;;;;;;;10.15;3.95;;;4.20;99.90;;;;;;5034864;28;20123;-86
2023/03/16 02:10:05;;;;;;;8.70;3.20;;;4.10;99.90;;;;;;5032508;28;20052;-86
2023/03/16 02:12:31;;;;;;;7.80;3.30;;;4.10;99.90;;;;;;5030850;28;20594;-85
2023/03/16 02:14:56;;;;;;;7.03;3.60;;;4.10;99.90;;;;;;5034568;28;20047;-85
2023/03/16 02:17:28;;;;;;;5.40;3.08;;;5.00;99.90;;;;;;5037418;28;20047;-85
2023/03/16 02:20:42;;;;;;;9.07;3.58;;;4.10;99.90;;;;;;5028729;28;20506;-85
2023/03/16 02:23:17;;;;;;;7.07;3.08;;;4.10;99.90;;;;;;5008838;28;20049;-85
2023/03/16 02:26:21;;;;;;;7.68;3.05;;;4.10;99.90;;;;;;5038694;28;20049;-85
2023/03/16 02:28:50;;;;;;;7.67;2.80;;;4.10;99.90;;;;;;5035585;28;20124;-85
2023/03/16 02:31:21;;;;;;;7.70;2.90;;;4.10;99.90;;;;;;5030558;28;20041;-85
2023/03/16 02:33:48;;;;;;;7.05;2.83;;;4.10;99.90;;;;;;5030467;28;20088;-85
2023/03/16 02:36:14;;;;;;;10.05;3.78;;;4.70;99.90;;;;;;5033393;28;20050;-85
2023/03/16 02:38:40;;;;;;;6.35;2.83;;;4.10;99.90;;;;;;5032317;28;20030;-85
2023/03/16 02:41:16;;;;;;;8.25;2.95;;;4.10;99.90;;;;;;5033263;28;20041;-85
2023/03/16 02:43:52;;;;;;;5.57;2.55;;;4.10;99.90;;;;;;5031377;28;20488;-84
2023/03/16 02:46:22;;;;;;;6.32;2.80;;;4.20;99.90;;;;;;5039177;28;20480;-85
2023/03/16 02:48:57;;;;;;;6.35;2.67;;;4.30;99.90;;;;;;5031857;28;20392;-85
2023/03/16 02:51:23;;;;;;;6.47;3.17;;;4.20;99.90;;;;;;5029802;28;20115;-84
2023/03/16 02:53:48;;;;;;;6.60;3.08;;;4.20;99.90;;;;;;5040075;28;20116;-84
2023/03/16 02:56:17;;;;;;;8.45;3.05;;;4.20;99.90;;;;;;5040964;28;20044;-85
2023/03/16 02:58:43;;;;;;;6.90;3.00;;;4.20;99.90;;;;;;5030064;28;20065;-84
2023/03/16 03:01:08;;;;;;;6.65;2.75;;;4.20;99.90;;;;;;5030066;28;20388;-84
2023/03/16 03:03:34;;;;;;;5.95;2.92;;;4.20;99.90;;;;;;5032262;28;20114;-84
2023/03/16 03:06:00;;;;;;;8.13;3.28;;;5.20;99.90;;;;;;5031203;28;20034;-84
2023/03/16 03:08:26;;;;;;;6.45;3.08;;;4.20;99.90;;;;;;5054147;28;20037;-84
2023/03/16 03:10:52;;;;;;;6.50;3.20;;;4.20;99.90;;;;;;5018623;28;20057;-85
2023/03/16 03:13:17;;;;;;;10.50;3.38;;;4.20;99.90;;;;;;5036036;28;20038;-85
2023/03/16 03:15:44;;;;;;;9.98;3.08;;;4.20;99.90;;;;;;5041855;28;20028;-85
2023/03/16 03:18:10;;;;;;;6.13;2.92;;;4.20;99.90;;;;;;5033760;28;20540;-85
2023/03/16 03:20:35;;;;;;;11.70;3.25;;;4.20;99.90;;;;;;5031537;28;20060;-85
2023/03/16 03:23:04;;;;;;;10.27;3.20;;;4.20;99.90;;;;;;5031587;28;20475;-85
2023/03/16 03:25:33;;;;;;;6.70;3.13;;;4.30;99.90;;;;;;5039887;28;20124;-85
2023/03/16 03:28:00;;;;;;;6.43;3.13;;;4.20;99.90;;;;;;5040638;28;20044;-85
2023/03/16 03:30:27;;;;;;;6.75;2.83;;;4.20;99.90;;;;;;5043233;28;20033;-85
2023/03/16 03:32:53;;;;;;;6.97;3.08;;;4.20;99.90;;;;;;5031472;28;20038;-85
2023/03/16 03:35:20;;;;;;;7.35;3.40;;;4.10;99.90;;;;;;5033078;28;20045;-85
2023/03/16 03:37:46;;;;;;;7.30;3.38;;;4.10;99.90;;;;;;5017464;28;20108;-85
2023/03/16 03:40:13;;;;;;;7.95;3.42;;;4.10;99.90;;;;;;5035856;28;20536;-85
2023/03/16 03:42:41;;;;;;;9.48;3.42;;;4.10;99.90;;;;;;5035885;28;20423;-85
2023/03/16 03:45:11;;;;;;;8.77;3.38;;;4.10;99.90;;;;;;5034016;28;20069;-85
2023/03/16 03:47:37;;;;;;;7.63;3.15;;;4.10;99.90;;;;;;5030611;28;20048;-85
2023/03/16 03:50:03;;;;;;;7.88;3.42;;;4.10;99.90;;;;;;5016536;28;20075;-85
2023/03/16 03:52:29;;;;;;;6.25;3.13;;;4.10;99.90;;;;;;5034347;28;20779;-84
2023/03/16 03:54:57;;;;;;;5.78;3.03;;;4.10;99.90;;;;;;5037972;28;20037;-85
2023/03/16 03:57:22;;;;;;;10.98;3.50;;;4.10;99.90;;;;;;5034854;28;20041;-85
2023/03/16 03:59:48;;;;;;;7.55;3.10;;;4.10;99.90;;;;;;5040837;28;20037;-84
2023/03/16 04:02:14;;;;;;;5.97;2.88;;;4.10;99.90;;;;;;5037180;28;20041;-85
2023/03/16 04:04:44;;;;;;;7.47;2.80;;;4.10;99.90;;;;;;5035199;28;20048;-85
2023/03/16 04:07:10;;;;;;;7.95;3.30;;;4.10;99.90;;;;;;5035079;28;20232;-85
2023/03/16 04:09:36;;;;;;;7.53;3.15;;;4.10;99.90;;;;;;5039670;28;20052;-85
2023/03/16 04:12:03;;;;;;;7.30;3.35;;;4.10;99.90;;;;;;5015924;28;20033;-85
2023/03/16 04:14:32;;;;;;;8.68;3.38;;;4.10;99.90;;;;;;5034652;28;20450;-85
2023/03/16 04:17:01;;;;;;;7.32;2.97;;;4.10;99.90;;;;;;5033830;28;20454;-85
2023/03/16 04:19:27;;;;;;;9.45;3.65;;;4.10;99.90;;;;;;5046265;28;20037;-85
2023/03/16 04:21:53;;;;;;;8.85;3.88;;;4.10;99.90;;;;;;5035700;28;20073;-85
2023/03/16 04:24:18;;;;;;;10.38;3.65;;;4.10;99.90;;;;;;5037395;28;20098;-85
2023/03/16 04:26:44;;;;;;;5.68;3.28;;;4.10;99.90;;;;;;5036707;28;20472;-85
2023/03/16 04:29:16;;;;;;;9.20;3.40;;;4.20;99.90;;;;;;5034666;28;20041;-84
2023/03/16 04:31:43;;;;;;;10.60;3.35;;;4.20;99.90;;;;;;5041804;28;20084;-85
2023/03/16 04:34:10;;;;;;;8.57;3.08;;;4.20;99.90;;;;;;5039028;28;20407;-84
2023/03/16 04:36:40;;;;;;;6.80;3.10;;;4.20;99.90;;;;;;5039098;28;20041;-85
2023/03/16 04:39:07;;;;;;;7.93;3.33;;;4.20;99.90;;;;;;5036010;28;21323;-85
2023/03/16 04:41:33;;;;;;;8.98;3.80;;;4.20;99.90;;;;;;5044496;28;20041;-85
2023/03/16 04:43:59;;;;;;;8.95;3.80;;;4.20;99.90;;;;;;5035867;28;20049;-85
2023/03/16 04:46:25;;;;;;;8.13;3.45;;;4.20;99.90;;;;;;5036356;28;20502;-85
2023/03/16 04:48:52;;;;;;;9.13;3.60;;;4.30;99.90;;;;;;5037390;28;20110;-85
2023/03/16 04:51:17;;;;;;;9.75;2.97;;;4.20;99.90;;;;;;5018204;28;20065;-84
2023/03/16 04:53:43;;;;;;;7.25;3.63;;;4.20;99.90;;;;;;5033384;28;20044;-85
2023/03/16 04:56:16;;;;;;;7.63;3.55;;;4.20;99.90;;;;;;5032033;28;20935;-84
2023/03/16 04:58:46;;;;;;;6.40;3.35;;;4.20;99.90;;;;;;5033630;28;20041;-85
2023/03/16 05:01:12;;;;;;;8.88;3.78;;;4.20;99.90;;;;;;5050270;28;20037;-84
2023/03/16 05:03:38;;;;;;;6.90;3.75;;;4.20;99.90;;;;;;5035967;28;20048;-85
2023/03/16 05:06:04;;;;;;;8.63;3.25;;;4.20;99.90;;;;;;5031180;28;20061;-85
2023/03/16 05:08:29;;;;;;;7.80;3.30;;;4.20;99.90;;;;;;5032623;28;20377;-85
2023/03/16 05:10:59;;;;;;;7.28;3.20;;;4.20;99.90;;;;;;5034337;28;20042;-85
2023/03/16 05:13:25;;;;;;;10.40;4.20;;;4.20;99.90;;;;;;5030338;28;20055;-85
2023/03/16 05:15:53;;;;;;;5.90;3.33;;;4.20;99.90;;;;;;5050303;28;20041;-85
2023/03/16 05:18:20;;;;;;;10.38;3.38;;;4.20;99.90;;;;;;5038908;28;20041;-85
2023/03/16 05:20:49;;;;;;;9.88;3.60;;;4.20;99.90;;;;;;5043634;28;20167;-85
2023/03/16 05:23:15;;;;;;;6.65;3.30;;;4.20;99.90;;;;;;5038539;28;20030;-85
2023/03/16 05:25:41;;;;;;;7.25;3.40;;;4.20;99.90;;;;;;5040210;28;20111;-85
2023/03/16 05:28:07;;;;;;;10.77;4.38;;;4.10;99.90;;;;;;5037527;28;20051;-85
2023/03/16 05:30:33;;;;;;;7.15;3.33;;;4.20;99.90;;;;;;5039809;28;20557;-85
2023/03/16 05:33:01;;;;;;;8.35;3.70;;;4.20;99.90;;;;;;5044497;28;20064;-83
2023/03/16 05:35:27;;;;;;;7.90;3.60;;;4.20;99.90;;;;;;5036225;28;20555;-85
2023/03/16 05:37:53;;;;;;;8.65;3.67;;;4.20;99.90;;;;;;5032271;28;20095;-85
2023/03/16 05:40:21;;;;;;;9.65;4.03;;;4.20;99.90;;;;;;5039180;28;20083;-85
2023/03/16 05:42:53;;;;;;;16.38;6.18;;;4.30;99.90;;;;;;5036097;28;20045;-85
2023/03/16 05:45:18;;;;;;;18.27;9.82;;;4.20;99.90;;;;;;5042362;28;20447;-86
2023/03/16 05:47:44;;;;;;;29.33;14.07;;;4.20;99.90;;;;;;5039820;28;20133;-85
2023/03/16 05:50:12;;;;;;;19.88;9.05;;;4.20;99.90;;;;;;5037937;28;20075;-85
2023/03/16 05:52:39;;;;;;;15.63;7.03;;;4.20;99.90;;;;;;5044131;28;20107;-84
2023/03/16 05:55:07;;;;;;;16.40;6.75;;;4.20;99.90;;;;;;5036234;28;20040;-83
2023/03/16 05:57:33;;;;;;;11.23;5.90;;;4.20;99.90;;;;;;5036752;28;20038;-84
2023/03/16 06:00:00;;;;;;;12.82;4.70;;;4.20;99.90;;;;;;5036515;28;20118;-84
2023/03/16 06:02:27;;;;;;;10.02;4.55;;;4.20;99.90;;;;;;5033160;28;20048;-84
2023/03/16 06:04:53;;;;;;;8.75;4.70;;;4.20;99.90;;;;;;5043699;28;20672;-83
2023/03/16 06:07:18;;;;;;;8.18;4.75;;;4.30;99.90;;;;;;5042599;28;20042;-91
2023/03/16 06:09:44;;;;;;;8.82;4.38;;;4.30;99.90;;;;;;5044344;28;20049;-86
2023/03/16 06:12:10;;;;;;;16.85;7.72;;;4.30;99.90;;;;;;5038143;28;20400;-86
2023/03/16 06:14:36;;;;;;;15.82;8.73;;;4.30;99.90;;;;;;5045493;28;20048;-86
2023/03/16 06:17:01;;;;;;;9.93;3.95;;;4.30;99.90;;;;;;5035334;28;20510;-85
2023/03/16 06:19:27;;;;;;;8.50;4.40;;;4.30;99.90;;;;;;5041555;28;20059;-86
2023/03/16 06:21:53;;;;;;;6.88;4.03;;;4.30;99.90;;;;;;5043847;28;20041;-86
2023/03/16 06:24:18;;;;;;;7.97;3.78;;;4.30;99.90;;;;;;5035645;28;20061;-85
2023/03/16 06:26:44;;;;;;;12.48;4.85;;;4.30;99.90;;;;;;5038881;28;20506;-86
2023/03/16 06:29:09;;;;;;;9.18;3.88;;;4.30;99.90;;;;;;5046711;28;20508;-86
2023/03/16 06:31:35;;;;;;;7.35;3.85;;;4.30;99.90;;;;;;5046920;28;20033;-86
2023/03/16 06:34:01;;;;;;;9.40;3.67;;;4.30;99.90;;;;;;5043561;28;20033;-85
2023/03/16 06:36:27;;;;;;;6.88;3.45;;;4.30;99.90;;;;;;5032670;28;20048;-86
2023/03/16 06:38:53;;;;;;;8.57;3.80;;;4.30;99.90;;;;;;5031401;28;20046;-85
2023/03/16 06:41:18;;;;;;;7.90;3.65;;;4.30;99.90;;;;;;5040046;28;20041;-85
2023/03/16 06:43:44;;;;;;;9.48;3.60;;;4.40;99.90;;;;;;5034565;28;20056;-85
2023/03/16 06:46:10;;;;;;;6.18;3.40;;;4.40;99.90;;;;;;5030400;28;20064;-86
2023/03/16 06:48:36;;;;;;;12.95;3.25;;;4.40;99.90;;;;;;5041455;28;20411;-87
2023/03/16 06:51:02;;;;;;;9.30;3.85;;;4.40;99.90;;;;;;5030893;28;20052;-87
2023/03/16 06:53:27;;;;;;;6.85;3.28;;;4.40;99.90;;;;;;5039524;28;20131;-88
2023/03/16 06:55:53;;;;;;;7.78;3.20;;;5.20;99.90;;;;;;5043451;28;20125;-88
2023/03/16 06:58:19;;;;;;;7.28;3.08;;;4.50;99.90;;;;;;5038267;28;20045;-89
2023/03/16 07:00:45;;;;;;;7.90;3.45;;;4.50;99.90;;;;;;5038952;28;20053;-88
2023/03/16 07:03:11;;;;;;;12.57;3.85;;;5.00;99.90;;;;;;5043244;28;20044;-90
2023/03/16 07:05:37;;;;;;;9.27;3.55;;;4.50;99.90;;;;;;5039568;28;20052;-87
2023/03/16 07:08:03;;;;;;;6.28;3.42;;;4.50;99.90;;;;;;5042644;28;20119;-89
2023/03/16 07:10:29;;;;;;;8.88;3.47;;;5.00;99.90;;;;;;5039699;28;20052;-89
2023/03/16 07:12:55;;;;;;;5.82;3.28;;;4.60;99.90;;;;;;5034807;28;20041;-90
2023/03/16 07:15:21;;;;;;;6.75;3.60;;;4.60;99.90;;;;;;5031442;28;20021;-90
2023/03/16 07:17:46;;;;;;;6.70;3.08;;;4.60;99.90;;;;;;5025140;28;20037;-89
2023/03/16 07:20:12;;;;;;;5.90;3.20;;;4.60;99.90;;;;;;5023532;28;20392;-91
2023/03/16 07:22:39;;;;;;;7.53;3.58;;;5.10;99.90;;;;;;5028127;28;20041;-88
2023/03/16 07:25:05;;;;;;;7.00;3.42;;;4.70;99.90;;;;;;5014926;28;20063;-87
2023/03/16 07:27:31;;;;;;;7.57;3.53;;;4.70;99.90;;;;;;5025848;28;20045;-88
2023/03/16 07:29:59;;;;;;;8.25;3.25;;;4.70;99.90;;;;;;5042352;28;20041;-86
2023/03/16 07:32:25;;;;;;;6.63;3.53;;;4.80;99.90;;;;;;5035934;28;20073;-86
2023/03/16 07:34:51;;;;;;;9.40;3.53;;;4.80;99.90;;;;;;5036744;28;20515;-86
2023/03/16 07:37:16;;;;;;;6.30;3.40;;;4.90;99.90;;;;;;5034497;28;20034;-86
2023/03/16 07:39:43;;;;;;;8.68;3.20;;;4.90;99.90;;;;;;5038086;28;20037;-86
2023/03/16 07:42:09;;;;;;;7.72;3.30;;;4.90;99.90;;;;;;5044527;28;20065;-88
2023/03/16 07:44:35;;;;;;;7.78;3.70;;;4.90;99.90;;;;;;5048397;28;20037;-86
2023/03/16 07:47:00;;;;;;;10.18;3.80;;;4.90;99.90;;;;;;5044645;28;20042;-88
2023/03/16 07:49:26;;;;;;;6.88;3.00;;;4.90;99.90;;;;;;5039893;28;20033;-90
2023/03/16 07:51:52;;;;;;;7.30;3.30;;;4.90;99.90;;;;;;5049954;28;20084;-93
2023/03/16 07:54:18;;;;;;;7.68;3.35;;;5.00;99.90;;;;;;5035819;28;20036;-92
2023/03/16 07:56:44;;;;;;;5.85;3.17;;;5.00;99.90;;;;;;5029042;28;22955;-87
2023/03/16 07:59:11;;;;;;;6.47;3.65;;;5.50;99.90;;;;;;5047626;28;20086;-88
2023/03/16 08:01:36;;;;;;;7.30;3.40;;;5.00;99.90;;;;;;5030214;28;20051;-88
2023/03/16 08:04:02;;;;;;;8.05;3.47;;;5.30;99.90;;;;;;5036996;28;20033;-88
2023/03/16 08:06:28;;;;;;;7.22;3.33;;;5.10;99.90;;;;;;5040822;28;20033;-89
2023/03/16 08:08:54;;;;;;;8.27;3.25;;;5.20;99.90;;;;;;5037799;28;20391;-88
2023/03/16 08:11:22;;;;;;;7.57;3.45;;;5.20;99.90;;;;;;5050767;28;20112;-88
2023/03/16 08:13:53;;;;;;;6.88;3.05;;;5.20;99.90;;;;;;5033719;28;20046;-88
2023/03/16 08:16:23;;;;;;;8.73;3.20;;;5.20;99.90;;;;;;5038867;28;20048;-88
2023/03/16 08:18:50;;;;;;;7.28;3.80;;;5.30;99.90;;;;;;5045004;28;20037;-88
2023/03/16 08:21:17;;;;;;;8.23;3.60;;;5.30;99.90;;;;;;5041329;28;20056;-89
2023/03/16 08:23:47;;;;;;;7.68;3.63;;;5.30;99.90;;;;;;5033414;28;20099;-88
2023/03/16 08:26:14;;;;;;;7.78;3.30;;;5.30;99.90;;;;;;5044339;28;20542;-89
2023/03/16 08:28:40;;;;;;;8.88;3.47;;;5.90;99.90;;;;;;5035892;28;20104;-89
2023/03/16 08:31:07;;;;;;;9.48;4.63;;;5.30;99.90;;;;;;5035483;28;20029;-88
2023/03/16 08:33:34;;;;;;;9.45;4.00;;;5.30;99.90;;;;;;5042021;28;20048;-88
2023/03/16 08:36:00;;;;;;;10.38;4.25;;;5.30;99.90;;;;;;5055906;28;20488;-89
2023/03/16 08:38:27;;;;;;;9.73;4.47;;;5.80;99.90;;;;;;5039284;28;20046;-88
2023/03/16 08:40:52;;;;;;;6.25;3.30;;;5.30;99.90;;;;;;5041685;28;20116;-88
2023/03/16 08:43:18;;;;;;;6.82;3.38;;;5.30;99.90;;;;;;5046854;28;20040;-89
2023/03/16 08:45:45;;;;;;;7.32;3.92;;;5.30;99.90;;;;;;5042550;28;20041;-88
2023/03/16 08:48:13;;;;;;;7.93;3.47;;;5.30;99.90;;;;;;5040606;28;20107;-88
2023/03/16 08:50:43;;;;;;;7.95;3.33;;;5.30;99.90;;;;;;5034514;28;20065;-89
2023/03/16 08:53:10;;;;;;;5.80;3.13;;;5.30;99.90;;;;;;5040527;28;20064;-88
2023/03/16 08:55:36;;;;;;;8.25;3.90;;;5.40;99.90;;;;;;5041462;28;20080;-88
2023/03/16 08:58:02;;;;;;;6.75;3.70;;;5.40;99.90;;;;;;5050166;28;20087;-88
2023/03/16 09:00:28;;;;;;;7.90;3.33;;;5.40;99.90;;;;;;5039613;28;20507;-88
2023/03/16 09:02:55;;;;;;;9.35;3.97;;;5.40;99.90;;;;;;5036292;28;20091;-88
2023/03/16 09:05:22;;;;;;;6.10;3.72;;;5.30;99.90;;;;;;5037750;28;20056;-89
2023/03/16 09:07:48;;;;;;;9.00;4.00;;;5.30;99.90;;;;;;5047312;28;20500;-89
2023/03/16 09:10:14;;;;;;;9.45;4.10;;;5.30;99.90;;;;;;5046264;28;20072;-92
2023/03/16 09:12:43;;;;;;;9.77;3.95;;;5.30;99.90;;;;;;5053649;28;20041;-91
2023/03/16 09:15:11;;;;;;;7.28;3.83;;;5.30;99.90;;;;;;5048356;28;20044;-90
2023/03/16 09:17:37;;;;;;;10.93;4.57;;;5.40;99.90;;;;;;5036575;28;20065;-88
2023/03/16 09:20:08;;;;;;;10.73;4.15;;;5.40;99.90;;;;;;5039681;28;20067;-89
2023/03/16 09:22:35;;;;;;;7.53;3.70;;;5.40;99.90;;;;;;5040648;28;20124;-89
2023/03/16 09:25:00;;;;;;;7.95;4.40;;;5.40;99.90;;;;;;5047053;28;20116;-89
2023/03/16 09:27:26;;;;;;;8.30;4.63;;;5.40;99.90;;;;;;5045953;28;20384;-90
2023/03/16 09:29:55;;;;;;;10.20;4.35;;;5.40;99.90;;;;;;5050915;28;20040;-93
2023/03/16 09:32:21;;;;;;;9.05;4.00;;;5.40;99.90;;;;;;5050729;28;20033;-89
2023/03/16 09:34:47;;;;;;;8.80;3.40;;;5.40;99.90;;;;;;5026531;28;20041;-89
2023/03/16 09:37:13;;;;;;;9.25;4.82;;;5.50;99.90;;;;;;5043601;28;20071;-93
2023/03/16 09:39:39;;;;;;;9.38;4.03;;;5.50;99.90;;;;;;5049952;28;20273;-92
2023/03/16 09:42:35;;;;;;;8.25;3.97;;;5.60;99.90;;;;;;5048633;28;20578;-94
2023/03/16 09:45:29;;;;;;;10.50;3.83;;;5.60;99.90;;;;;;5046795;28;20042;-95
2023/03/16 09:48:00;;;;;;;7.93;4.32;;;5.70;99.90;;;;;;5068373;28;20040;-96
2023/03/16 09:50:32;;;;;;;9.43;3.95;;;5.70;99.90;;;;;;5071759;28;20064;-96
2023/03/16 09:53:32;;;;;;;9.35;3.65;;;5.80;99.90;;;;;;5069330;28;20033;-94
2023/03/16 09:56:11;;;;;;;9.85;4.80;;;5.90;99.90;;;;;;5073989;28;20013;-95
2023/03/16 09:58:37;;;;;;;8.45;4.60;;;5.90;99.90;;;;;;5057737;28;20033;-90
2023/03/16 10:01:33;;;;;;;12.50;4.85;;;6.00;99.90;;;;;;5053945;28;20052;-89
2023/03/16 10:04:36;;;;;;;11.68;5.07;;;6.10;99.90;;;;;;5035652;28;20050;-89
2023/03/16 10:07:24;;;;;;;9.27;4.38;;;6.10;99.90;;;;;;5057527;28;20361;-88
2023/03/16 10:09:56;;;;;;;10.48;4.35;;;6.10;99.90;;;;;;5043689;28;20114;-88
2023/03/16 10:12:30;;;;;;;9.50;4.47;;;6.20;99.90;;;;;;5042853;28;20033;-88
2023/03/16 10:15:08;;;;;;;10.27;4.45;;;6.20;99.90;;;;;;5044056;28;20029;-88
2023/03/16 10:17:42;;;;;;;8.10;4.18;;;6.20;99.90;;;;;;5042599;28;20048;-84
2023/03/16 10:20:16;;;;;;;9.32;4.38;;;6.30;99.90;;;;;;5044171;28;20450;-85
2023/03/16 10:22:44;;;;;;;10.38;4.60;;;6.30;99.90;;;;;;5041706;28;20052;-85
2023/03/16 10:25:14;;;;;;;10.52;4.13;;;6.20;99.90;;;;;;5044375;28;20029;-85
2023/03/16 10:27:42;;;;;;;8.98;4.75;;;6.20;99.90;;;;;;5048200;28;20114;-86
2023/03/16 10:30:31;;;;;;;9.30;4.65;;;6.20;99.90;;;;;;5041814;28;20037;-85
2023/03/16 10:33:04;;;;;;;10.43;5.38;;;6.20;99.90;;;;;;5025883;28;20041;-86
2023/03/16 10:35:48;;;;;;;10.23;4.90;;;6.20;99.90;;;;;;5046421;28;20346;-86
2023/03/16 10:38:37;;;;;;;12.35;4.47;;;6.20;99.90;;;;;;5038675;28;20053;-85
2023/03/16 10:41:21;;;;;;;9.90;4.03;;;6.20;99.90;;;;;;5040508;28;20049;-85
2023/03/16 10:44:06;;;;;;;11.13;4.45;;;6.20;99.90;;;;;;5036649;28;20099;-85
2023/03/16 10:46:40;;;;;;;11.30;5.13;;;6.20;99.90;;;;;;5046224;28;20049;-85
2023/03/16 10:49:27;;;;;;;8.30;4.32;;;6.20;99.90;;;;;;5044750;28;20041;-85
2023/03/16 10:51:56;;;;;;;8.05;4.68;;;6.20;99.90;;;;;;5039805;28;20479;-85
2023/03/16 10:54:28;;;;;;;8.98;4.55;;;6.20;99.90;;;;;;5047171;28;20029;-85
2023/03/16 10:56:55;;;;;;;10.07;4.57;;;6.20;99.90;;;;;;5041067;28;20124;-85
2023/03/16 10:59:30;;;;;;;12.00;4.72;;;6.30;99.90;;;;;;5045342;28;20045;-86
2023/03/16 11:01:57;;;;;;;12.05;4.53;;;6.30;99.90;;;;;;5040573;28;20045;-88
2023/03/16 11:04:23;;;;;;;8.07;4.40;;;6.30;99.90;;;;;;5043183;28;20037;-89
2023/03/16 11:06:53;;;;;;;11.68;4.13;;;6.30;99.90;;;;;;5048451;28;20037;-90
2023/03/16 11:09:23;;;;;;;6.88;3.78;;;6.30;99.90;;;;;;5037569;28;20037;-90
2023/03/16 11:11:50;;;;;;;7.97;4.03;;;6.30;99.90;;;;;;5061910;28;20049;-91
2023/03/16 11:14:21;;;;;;;10.75;4.10;;;6.40;99.90;;;;;;5047763;28;20037;-94
2023/03/16 11:17:11;;;;;;;10.23;4.18;;;6.40;99.90;;;;;;5046124;28;20069;-91
2023/03/16 11:19:48;;;;;;;7.65;4.07;;;6.40;99.90;;;;;;5048434;28;20045;-89
2023/03/16 11:22:18;;;;;;;9.55;4.13;;;6.40;99.90;;;;;;5053159;28;20503;-90
2023/03/16 11:24:48;;;;;;;11.85;4.00;;;6.40;99.90;;;;;;5040821;28;20043;-89
2023/03/16 11:27:27;;;;;;;9.35;3.92;;;6.50;99.90;;;;;;5043750;28;20080;-89
2023/03/16 11:30:19;;;;;;;8.60;3.53;;;6.50;99.90;;;;;;5039910;28;20276;-90
2023/03/16 11:32:52;;;;;;;9.57;4.30;;;6.50;99.90;;;;;;5053085;28;20036;-91
2023/03/16 11:35:34;;;;;;;7.28;3.35;;;6.50;99.90;;;;;;5048322;28;20041;-91
2023/03/16 11:38:15;;;;;;;9.55;4.13;;;6.50;99.90;;;;;;5025434;28;20091;-91
2023/03/16 11:41:14;;;;;;;9.10;3.78;;;6.60;99.90;;;;;;5046940;28;20487;-89
2023/03/16 11:43:56;;;;;;;9.40;4.03;;;6.60;99.90;;;;;;5028823;28;20126;-90
2023/03/16 11:46:32;;;;;;;7.30;3.58;;;6.60;99.90;;;;;;5045664;28;20041;-91
2023/03/16 11:49:19;;;;;;;9.00;3.92;;;6.70;99.90;;;;;;5052538;28;20061;-91
2023/03/16 11:52:04;;;;;;;5.75;3.45;;;6.70;99.90;;;;;;5035844;28;20053;-91
2023/03/16 11:55:07;;;;;;;8.15;3.90;;;6.70;99.90;;;;;;5048667;28;20046;-91
2023/03/16 11:57:45;;;;;;;7.22;3.58;;;6.80;99.90;;;;;;5050166;28;20041;-93
2023/03/16 12:00:19;;;;;;;7.95;3.72;;;6.90;99.90;;;;;;5048160;28;20040;-90
2023/03/16 12:02:52;;;;;;;7.55;3.20;;;6.90;99.90;;;;;;5043496;28;20073;-91
2023/03/16 12:05:26;;;;;;;9.65;4.18;;;7.00;99.90;;;;;;5036915;28;20140;-91
2023/03/16 12:08:00;;;;;;;6.07;3.17;;;7.10;99.90;;;;;;5049901;28;20052;-90
2023/03/16 12:10:48;;;;;;;6.75;4.07;;;7.10;99.90;;;;;;5046799;28;20135;-91
2023/03/16 12:13:17;;;;;;;6.93;3.20;;;7.10;99.90;;;;;;5034201;28;20052;-91
2023/03/16 12:15:53;;;;;;;9.95;3.90;;;7.30;99.90;;;;;;5041640;28;20036;-92
2023/03/16 12:18:44;;;;;;;7.15;3.30;;;7.30;99.90;;;;;;5044614;28;20048;-92
2023/03/16 12:21:17;;;;;;;6.03;3.28;;;7.30;99.90;;;;;;5044617;28;20088;-91
2023/03/16 12:23:54;;;;;;;7.77;3.80;;;7.40;99.90;;;;;;5043026;28;20171;-90
2023/03/16 12:26:23;;;;;;;7.50;3.45;;;7.50;99.90;;;;;;5045693;28;20351;-90
2023/03/16 12:28:53;;;;;;;7.90;3.58;;;7.60;99.90;;;;;;5048999;28;20036;-91
2023/03/16 12:31:26;;;;;;;8.18;3.92;;;7.70;99.90;;;;;;5047493;28;20135;-91
2023/03/16 12:34:07;;;;;;;8.32;3.70;;;7.70;99.90;;;;;;5049206;28;20497;-90
2023/03/16 12:36:55;;;;;;;6.38;3.20;;;7.80;99.90;;;;;;5043980;28;20049;-92
2023/03/16 12:39:45;;;;;;;7.20;3.20;;;7.80;99.90;;;;;;5039685;28;20526;-91
2023/03/16 12:42:33;;;;;;;7.38;3.17;;;7.80;99.90;;;;;;5030354;28;20124;-91
2023/03/16 12:45:11;;;;;;;6.45;3.17;;;7.80;99.90;;;;;;5044773;28;20045;-91
2023/03/16 12:47:55;;;;;;;10.25;3.40;;;7.90;99.90;;;;;;5050610;28;20071;-91
2023/03/16 12:50:21;;;;;;;6.55;3.25;;;8.00;99.90;;;;;;5049900;28;20064;-90
2023/03/16 12:52:50;;;;;;;7.38;3.40;;;8.10;99.90;;;;;;5046189;28;20415;-90
2023/03/16 12:55:18;;;;;;;6.25;3.58;;;8.20;99.90;;;;;;5029675;28;20045;-94
2023/03/16 12:57:46;;;;;;;7.03;3.40;;;8.20;99.90;;;;;;5048533;28;20041;-92
2023/03/16 13:00:15;;;;;;;6.45;3.60;;;8.30;99.90;;;;;;5039586;28;20095;-91
2023/03/16 13:02:44;;;;;;;7.57;3.90;;;8.30;99.90;;;;;;5037851;28;20041;-92
2023/03/16 13:05:13;;;;;;;6.68;2.70;;;8.30;99.90;;;;;;5037687;28;20042;-92
2023/03/16 13:08:05;;;;;;;7.32;3.67;;;8.40;99.90;;;;;;5049989;28;20053;-92
2023/03/16 13:10:32;;;;;;;5.63;3.10;;;8.40;99.90;;;;;;5039869;28;20045;-92